createdAt,value
2022-10-10T00:02:24.223Z,51.94
2022-10-10T00:04:53.838Z,52.00
2022-10-10T00:07:23.836Z,52.08
2022-10-10T00:09:57.972Z,51.89
2022-10-10T00:12:34.641Z,52.00
2022-10-10T00:15:06.179Z,52.25
2022-10-10T00:17:36.739Z,52.30
2022-10-10T00:20:07.319Z,52.18
2022-10-10T00:22:37.999Z,52.00
2022-10-10T00:25:13.027Z,52.35
2022-10-10T00:27:47.325Z,52.13
2022-10-10T00:30:18.943Z,52.59
2022-10-10T00:32:51.732Z,52.35
2022-10-10T00:35:45.431Z,52.52
2022-10-10T00:38:24.461Z,52.40
2022-10-10T00:40:58.177Z,52.70
2022-10-10T00:43:32.004Z,52.56
2022-10-10T00:46:01.981Z,52.54
2022-10-10T00:48:37.218Z,52.67
2022-10-10T00:51:16.084Z,52.61
2022-10-10T00:53:51.099Z,52.72
2022-10-10T00:56:28.611Z,52.87
2022-10-10T00:59:03.308Z,52.81
2022-10-10T01:01:31.764Z,52.95
2022-10-10T01:04:03.963Z,52.88
2022-10-10T01:06:33.048Z,52.98
2022-10-10T01:09:03.050Z,53.00
2022-10-10T01:11:54.381Z,53.00
2022-10-10T01:24:32.671Z,53.29
2022-10-10T01:30:44.488Z,53.49
2022-10-10T01:33:36.641Z,53.39
2022-10-10T01:36:14.427Z,53.86
2022-10-10T01:38:56.713Z,54.20
2022-10-10T01:41:37.279Z,55.19
2022-10-10T01:44:06.679Z,55.28
2022-10-10T01:46:38.777Z,55.93
2022-10-10T01:49:07.360Z,56.25
2022-10-10T01:51:57.000Z,56.79
2022-10-10T01:54:38.421Z,57.45
2022-10-10T01:57:18.136Z,57.55
2022-10-10T01:59:59.583Z,57.37
2022-10-10T02:02:47.807Z,57.32
2022-10-10T02:05:24.948Z,57.37
2022-10-10T02:07:58.381Z,57.34
2022-10-10T02:10:31.219Z,57.33
2022-10-10T02:13:02.226Z,57.70
2022-10-10T02:15:34.946Z,58.02
2022-10-10T02:18:07.647Z,58.14
2022-10-10T02:20:37.435Z,58.42
2022-10-10T02:23:06.813Z,58.44
2022-10-10T02:25:40.553Z,58.60
2022-10-10T02:28:14.809Z,58.52
2022-10-10T02:30:46.881Z,58.47
2022-10-10T02:33:24.993Z,58.36
2022-10-10T02:35:54.671Z,58.49
2022-10-10T02:38:22.952Z,58.57
2022-10-10T02:40:52.768Z,58.54
2022-10-10T02:43:21.576Z,58.77
2022-10-10T02:45:49.921Z,58.34
2022-10-10T02:48:19.970Z,58.35
2022-10-10T02:50:48.548Z,58.01
2022-10-10T02:53:16.729Z,57.94
2022-10-10T02:55:45.144Z,57.74
2022-10-10T02:58:14.236Z,57.66
2022-10-10T03:00:42.391Z,57.09
2022-10-10T03:03:10.493Z,56.81
2022-10-10T03:05:40.236Z,56.43
2022-10-10T03:08:11.655Z,56.39
2022-10-10T03:10:40.956Z,56.20
2022-10-10T03:13:09.463Z,56.02
2022-10-10T03:15:37.551Z,56.02
2022-10-10T03:18:06.400Z,55.16
2022-10-10T03:20:34.565Z,55.18
2022-10-10T03:23:04.160Z,55.34
2022-10-10T03:25:35.365Z,54.58
2022-10-10T03:28:03.569Z,54.58
2022-10-10T03:30:31.576Z,54.46
2022-10-10T03:32:59.669Z,54.32
2022-10-10T03:35:27.817Z,53.98
2022-10-10T03:37:56.158Z,53.66
2022-10-10T03:40:26.064Z,53.41
2022-10-10T03:42:54.299Z,53.02
2022-10-10T03:45:22.815Z,52.95
2022-10-10T03:47:51.063Z,53.08
2022-10-10T03:50:19.340Z,52.87
2022-10-10T03:52:47.636Z,52.71
2022-10-10T03:55:15.939Z,52.12
2022-10-10T03:57:45.445Z,52.36
2022-10-10T04:00:14.610Z,52.46
2022-10-10T04:02:42.974Z,52.21
2022-10-10T04:05:11.146Z,52.47
2022-10-10T04:07:39.226Z,52.51
2022-10-10T04:10:08.596Z,52.34
2022-10-10T04:12:36.805Z,52.30
2022-10-10T04:15:07.462Z,52.21
2022-10-10T04:17:35.521Z,52.15
2022-10-10T04:20:03.636Z,51.82
2022-10-10T04:22:32.157Z,51.64
2022-10-10T04:25:00.501Z,51.42
2022-10-10T04:27:28.550Z,50.97
2022-10-10T04:29:56.902Z,50.81
2022-10-10T04:32:26.539Z,50.91
2022-10-10T04:34:54.687Z,50.46
2022-10-10T04:37:22.949Z,50.22
2022-10-10T04:39:51.258Z,49.77
2022-10-10T04:42:19.401Z,49.91
2022-10-10T04:44:47.408Z,50.06
2022-10-10T04:47:15.745Z,49.64
2022-10-10T04:49:45.637Z,49.49
2022-10-10T04:52:13.735Z,49.42
2022-10-10T04:54:42.172Z,49.71
2022-10-10T04:57:10.265Z,49.91
2022-10-10T04:59:38.372Z,49.53
2022-10-10T05:02:06.466Z,49.69
2022-10-10T05:04:34.830Z,49.05
2022-10-10T05:07:05.383Z,49.61
2022-10-10T05:09:34.043Z,49.04
2022-10-10T05:12:03.422Z,49.72
2022-10-10T05:14:31.792Z,49.07
2022-10-10T05:16:59.876Z,49.14
2022-10-10T05:19:27.972Z,48.89
2022-10-10T05:21:56.281Z,48.90
2022-10-10T05:24:26.360Z,49.05
2022-10-10T05:26:54.516Z,48.96
2022-10-10T05:29:22.792Z,48.84
2022-10-10T05:31:50.811Z,48.61
2022-10-10T05:34:19.445Z,49.03
2022-10-10T05:36:49.939Z,48.89
2022-10-10T05:39:18.151Z,48.70
2022-10-10T05:41:47.757Z,48.71
2022-10-10T05:44:19.012Z,48.72
2022-10-10T05:46:53.227Z,48.76
2022-10-10T05:49:21.714Z,48.99
2022-10-10T05:51:49.814Z,48.90
2022-10-10T05:54:18.545Z,49.15
2022-10-10T05:56:49.288Z,49.21
2022-10-10T05:59:17.378Z,49.03
2022-10-10T06:01:45.857Z,48.80
2022-10-10T06:04:14.085Z,48.93
2022-10-10T06:06:43.500Z,48.85
2022-10-10T06:09:12.795Z,48.79
2022-10-10T06:11:41.018Z,48.54
2022-10-10T06:14:10.947Z,48.61
2022-10-10T06:16:39.805Z,48.61
2022-10-10T06:19:11.370Z,48.51
2022-10-10T06:21:42.075Z,48.57
2022-10-10T06:24:10.972Z,48.45
2022-10-10T06:26:39.222Z,48.62
2022-10-10T06:29:07.541Z,48.11
2022-10-10T06:31:41.251Z,48.25
2022-10-10T06:34:09.441Z,48.25
2022-10-10T06:36:39.097Z,48.37
2022-10-10T06:39:07.496Z,48.42
2022-10-10T06:41:35.689Z,48.59
2022-10-10T06:44:04.338Z,48.58
2022-10-10T06:46:34.406Z,48.88
2022-10-10T06:49:04.537Z,48.52
2022-10-10T06:51:32.876Z,48.70
2022-10-10T06:54:01.472Z,48.71
2022-10-10T06:56:29.770Z,48.81
2022-10-10T06:58:57.993Z,48.87
2022-10-10T07:01:30.329Z,49.02
2022-10-10T07:03:58.769Z,48.98
2022-10-10T07:06:32.527Z,49.30
2022-10-10T07:09:05.267Z,49.23
2022-10-10T07:11:33.727Z,49.16
2022-10-10T07:14:01.859Z,49.01
2022-10-10T07:16:30.147Z,49.19
2022-10-10T07:18:58.371Z,49.19
2022-10-10T07:21:28.030Z,49.29
2022-10-10T07:24:04.272Z,49.46
2022-10-10T07:29:25.107Z,49.37
2022-10-10T07:31:53.511Z,49.08
2022-10-10T07:34:22.427Z,49.19
2022-10-10T07:36:52.561Z,49.15
2022-10-10T07:39:21.459Z,49.33
2022-10-10T07:41:50.846Z,49.36
2022-10-10T07:44:20.269Z,49.39
2022-10-10T07:46:48.683Z,49.37
2022-10-10T07:49:16.953Z,49.19
2022-10-10T07:51:48.203Z,49.19
2022-10-10T07:54:18.094Z,49.05
2022-10-10T07:56:46.288Z,49.06
2022-10-10T07:59:14.334Z,49.02
2022-10-10T08:01:42.555Z,49.05
2022-10-10T08:04:11.708Z,49.16
2022-10-10T08:06:39.819Z,49.16
2022-10-10T08:09:15.152Z,48.95
2022-10-10T08:11:44.781Z,49.12
2022-10-10T08:14:13.290Z,49.12
2022-10-10T08:16:42.136Z,49.24
2022-10-10T08:19:14.755Z,49.19
2022-10-10T08:21:43.298Z,48.85
2022-10-10T08:24:13.583Z,49.06
2022-10-10T08:26:41.732Z,48.85
2022-10-10T08:29:12.541Z,49.09
2022-10-10T08:31:41.908Z,49.11
2022-10-10T08:34:11.231Z,48.79
2022-10-10T08:36:40.135Z,48.42
2022-10-10T08:39:09.203Z,48.17
2022-10-10T08:41:44.552Z,48.14
2022-10-10T08:44:19.998Z,47.54
2022-10-10T08:46:51.734Z,47.27
2022-10-10T08:49:25.842Z,46.78
2022-10-10T08:52:02.330Z,46.42
2022-10-10T08:54:34.717Z,46.25
2022-10-10T08:57:07.076Z,46.49
2022-10-10T08:59:44.557Z,46.26
2022-10-10T09:02:43.881Z,46.28
2022-10-10T09:05:22.170Z,46.09
2022-10-10T09:08:17.362Z,45.90
2022-10-10T09:10:54.810Z,45.80
2022-10-10T09:13:39.622Z,46.39
2022-10-10T09:16:25.210Z,46.07
2022-10-10T09:19:02.116Z,46.22
2022-10-10T09:21:35.295Z,46.13
2022-10-10T09:24:18.182Z,46.09
2022-10-10T09:26:51.932Z,46.45
2022-10-10T09:29:32.282Z,46.39
2022-10-10T09:32:07.836Z,46.42
2022-10-10T09:34:43.203Z,46.40
2022-10-10T09:37:42.382Z,46.39
2022-10-10T09:40:23.023Z,45.87
2022-10-10T09:46:31.720Z,45.71
2022-10-10T09:52:28.631Z,45.69
2022-10-10T09:58:15.642Z,45.51
2022-10-10T10:00:49.401Z,45.11
2022-10-10T10:03:21.643Z,45.26
2022-10-10T10:06:05.198Z,45.07
2022-10-10T10:08:39.076Z,44.98
2022-10-10T10:11:32.013Z,44.53
2022-10-10T10:14:05.867Z,44.99
2022-10-10T10:16:41.143Z,44.53
2022-10-10T10:19:32.150Z,44.37
2022-10-10T10:22:18.978Z,44.20
2022-10-10T10:24:52.706Z,44.56
2022-10-10T10:30:28.397Z,44.86
2022-10-10T10:33:04.824Z,44.47
2022-10-10T10:35:40.648Z,44.46
2022-10-10T10:38:30.123Z,44.18
2022-10-10T10:41:07.510Z,44.32
2022-10-10T10:43:56.937Z,44.32
2022-10-10T10:47:05.460Z,44.46
2022-10-10T10:49:38.481Z,44.29
2022-10-10T10:52:32.421Z,44.09
2022-10-10T10:55:27.895Z,43.58
2022-10-10T10:59:09.784Z,43.44
2022-10-10T11:01:51.859Z,43.57
2022-10-10T11:05:22.206Z,43.59
2022-10-10T11:07:40.631Z,43.65
2022-10-10T11:10:19.374Z,43.61
2022-10-10T11:13:02.908Z,43.21
2022-10-10T11:27:32.027Z,43.21
2022-10-10T11:30:15.313Z,43.63
2022-10-10T11:33:06.207Z,43.05
2022-10-10T11:36:25.528Z,42.46
2022-10-10T11:39:15.528Z,42.82
2022-10-10T11:41:49.442Z,42.88
2022-10-10T11:47:28.624Z,42.28
2022-10-10T11:56:14.457Z,40.82
2022-10-10T11:58:46.230Z,40.95
2022-10-10T12:01:22.680Z,40.56
2022-10-10T12:03:53.157Z,40.13
2022-10-10T12:06:28.136Z,39.75
2022-10-10T12:09:03.981Z,39.48
2022-10-10T12:11:37.611Z,39.45
2022-10-10T12:17:01.902Z,38.73
2022-10-10T12:22:31.669Z,39.14
2022-10-10T12:25:24.923Z,38.75
2022-10-10T12:28:27.864Z,38.50
2022-10-10T12:31:30.375Z,38.24
2022-10-10T12:34:11.063Z,38.14
2022-10-10T12:37:21.835Z,38.58
2022-10-10T12:40:22.441Z,38.48
2022-10-10T12:43:45.346Z,38.57
2022-10-10T12:46:24.248Z,39.01
2022-10-10T12:49:33.115Z,38.62
2022-10-10T12:52:10.465Z,38.37
2022-10-10T12:54:48.529Z,37.87
2022-10-10T12:57:27.950Z,37.82
2022-10-10T13:00:01.831Z,37.91
2022-10-10T13:02:30.597Z,38.16
2022-10-10T13:05:28.306Z,38.23
2022-10-10T13:08:04.169Z,38.03
2022-10-10T13:10:36.726Z,37.68
2022-10-10T13:13:19.036Z,37.64
2022-10-10T13:16:05.329Z,37.50
2022-10-10T13:18:39.001Z,37.48
2022-10-10T13:21:28.711Z,37.10
2022-10-10T13:24:17.772Z,37.01
2022-10-10T13:26:48.921Z,36.37
2022-10-10T13:29:31.597Z,35.37
2022-10-10T13:32:06.780Z,35.50
2022-10-10T13:37:41.494Z,36.31
2022-10-10T13:40:16.853Z,35.95
2022-10-10T13:42:50.566Z,35.89
2022-10-10T13:45:40.319Z,35.70
2022-10-10T13:48:21.705Z,35.56
2022-10-10T13:51:06.499Z,35.97
2022-10-10T13:53:49.821Z,36.56
2022-10-10T13:56:24.726Z,37.17
2022-10-10T13:59:14.545Z,37.03
2022-10-10T14:01:46.935Z,36.26
2022-10-10T14:04:21.903Z,37.86
2022-10-10T14:06:56.724Z,38.18
2022-10-10T14:09:30.846Z,37.26
2022-10-10T14:12:03.353Z,35.06
2022-10-10T14:14:37.232Z,33.48
2022-10-10T14:17:07.349Z,33.62
2022-10-10T14:19:35.614Z,33.85
2022-10-10T14:22:07.072Z,33.37
2022-10-10T14:24:35.908Z,32.80
2022-10-10T14:27:13.573Z,33.45
2022-10-10T14:29:43.260Z,32.94
2022-10-10T14:32:14.327Z,31.22
2022-10-10T14:34:43.499Z,31.16
2022-10-10T14:37:20.001Z,30.65
2022-10-10T14:39:48.891Z,30.79
2022-10-10T14:42:20.242Z,30.28
2022-10-10T14:44:48.501Z,29.15
2022-10-10T14:47:20.363Z,28.62
2022-10-10T14:49:48.739Z,28.45
2022-10-10T14:52:18.778Z,28.22
2022-10-10T14:54:46.958Z,27.92
2022-10-10T14:57:17.406Z,28.44
2022-10-10T14:59:46.037Z,28.72
2022-10-10T15:02:29.776Z,28.09
2022-10-10T15:04:58.246Z,28.10
2022-10-10T15:07:26.415Z,27.32
2022-10-10T15:12:49.796Z,26.93
2022-10-10T15:15:18.202Z,27.52
2022-10-10T15:17:56.067Z,28.51
2022-10-10T15:20:31.315Z,29.34
2022-10-10T15:23:01.766Z,30.28
2022-10-10T15:25:33.753Z,31.16
2022-10-10T15:28:04.863Z,31.49
2022-10-10T15:30:42.928Z,31.69
2022-10-10T15:33:28.361Z,31.91
2022-10-10T15:36:08.935Z,32.26
2022-10-10T15:38:39.271Z,32.36
2022-10-10T15:41:10.296Z,32.79
2022-10-10T15:43:51.984Z,32.83
2022-10-10T15:46:20.334Z,32.41
2022-10-10T15:48:52.017Z,32.40
2022-10-10T15:51:20.704Z,32.54
2022-10-10T15:53:52.158Z,32.33
2022-10-10T15:56:20.607Z,32.35
2022-10-10T15:58:50.828Z,32.45
2022-10-10T16:01:23.980Z,32.80
2022-10-10T16:03:55.086Z,32.84
2022-10-10T16:06:25.441Z,33.21
2022-10-10T16:09:10.069Z,33.36
2022-10-10T16:11:49.175Z,33.51
2022-10-10T16:14:22.777Z,33.81
2022-10-10T16:16:51.108Z,33.94
2022-10-10T16:19:21.338Z,33.80
2022-10-10T16:21:51.922Z,34.67
2022-10-10T16:24:20.095Z,34.99
2022-10-10T16:26:48.355Z,34.62
2022-10-10T16:29:26.402Z,33.87
2022-10-10T16:32:31.903Z,33.36
2022-10-10T16:35:39.438Z,32.83
2022-10-10T16:38:11.056Z,32.41
2022-10-10T16:40:53.982Z,30.69
2022-10-10T16:43:25.343Z,30.57
2022-10-10T16:45:54.349Z,31.32
2022-10-10T16:48:23.974Z,31.97
2022-10-10T16:50:54.912Z,32.28
2022-10-10T16:53:25.085Z,32.40
2022-10-10T16:55:56.227Z,32.15
2022-10-10T16:58:30.467Z,31.90
2022-10-10T17:01:03.615Z,32.22
2022-10-10T17:03:34.022Z,32.30
2022-10-10T17:06:08.382Z,32.62
2022-10-10T17:08:58.744Z,33.01
2022-10-10T17:11:40.119Z,33.33
2022-10-10T17:14:17.468Z,33.54
2022-10-10T17:19:37.853Z,33.90
2022-10-10T17:22:06.481Z,34.36
2022-10-10T17:24:37.766Z,34.62
2022-10-10T17:27:06.453Z,35.04
2022-10-10T17:29:34.655Z,35.30
2022-10-10T17:32:06.876Z,35.75
2022-10-10T17:34:36.021Z,35.94
2022-10-10T17:37:05.094Z,36.51
2022-10-10T17:39:33.287Z,36.74
2022-10-10T17:42:04.778Z,37.07
2022-10-10T17:44:39.059Z,37.37
2022-10-10T17:47:08.844Z,38.20
2022-10-10T17:49:37.315Z,38.51
2022-10-10T17:52:05.830Z,38.66
2022-10-10T17:54:34.388Z,38.77
2022-10-10T17:57:04.242Z,38.84
2022-10-10T17:59:32.785Z,39.08
2022-10-10T18:02:01.802Z,39.44
2022-10-10T18:04:30.185Z,39.80
2022-10-10T18:06:58.664Z,40.23
2022-10-10T18:09:27.481Z,40.20
2022-10-10T18:11:57.264Z,40.34
2022-10-10T18:14:43.075Z,40.58
2022-10-10T18:17:12.363Z,40.27
2022-10-10T18:19:40.608Z,40.74
2022-10-10T18:22:08.902Z,40.76
2022-10-10T18:24:37.345Z,40.80
2022-10-10T18:27:06.656Z,40.81
2022-10-10T18:29:34.858Z,41.00
2022-10-10T18:32:04.428Z,40.90
2022-10-10T18:34:32.537Z,40.85
2022-10-10T18:37:01.008Z,41.03
2022-10-10T18:39:33.066Z,40.65
2022-10-10T18:42:01.580Z,41.13
2022-10-10T18:44:30.970Z,41.21
2022-10-10T18:46:59.348Z,41.23
2022-10-10T18:49:54.263Z,41.47
2022-10-10T18:52:25.804Z,41.62
2022-10-10T18:54:56.131Z,41.82
2022-10-10T18:57:24.325Z,41.92
2022-10-10T18:59:53.084Z,41.89
2022-10-10T19:02:21.468Z,42.20
2022-10-10T19:04:52.156Z,42.06
2022-10-10T19:07:21.983Z,42.10
2022-10-10T19:09:50.162Z,42.18
2022-10-10T19:12:18.735Z,42.26
2022-10-10T19:14:47.396Z,42.38
2022-10-10T19:17:15.690Z,42.53
2022-10-10T19:19:43.993Z,42.53
2022-10-10T19:22:12.150Z,42.89
2022-10-10T19:24:42.518Z,43.27
2022-10-10T19:27:11.060Z,43.86
2022-10-10T19:29:39.675Z,43.82
2022-10-10T19:32:09.366Z,43.75
2022-10-10T19:34:39.263Z,44.15
2022-10-10T19:37:07.963Z,44.23
2022-10-10T19:39:37.664Z,44.56
2022-10-10T19:42:09.837Z,44.69
2022-10-10T19:44:38.563Z,44.44
2022-10-10T19:47:06.788Z,44.47
2022-10-10T19:49:37.581Z,44.47
2022-10-10T19:52:06.093Z,44.77
2022-10-10T19:54:50.704Z,44.87
2022-10-10T19:57:21.226Z,44.99
2022-10-10T19:59:52.367Z,45.06
2022-10-10T20:02:21.286Z,45.34
2022-10-10T20:04:49.750Z,45.66
2022-10-10T20:07:18.052Z,45.73
2022-10-10T20:09:46.477Z,45.58
2022-10-10T20:12:14.922Z,45.74
2022-10-10T20:14:44.636Z,46.09
2022-10-10T20:17:13.406Z,46.18
2022-10-10T20:19:42.841Z,45.81
2022-10-10T20:22:11.919Z,45.81
2022-10-10T20:24:41.057Z,45.78
2022-10-10T20:27:09.498Z,46.02
2022-10-10T20:29:37.726Z,46.04
2022-10-10T20:32:08.106Z,46.16
2022-10-10T20:34:42.538Z,46.02
2022-10-10T20:37:11.716Z,46.16
2022-10-10T20:39:44.265Z,45.87
2022-10-10T20:42:15.227Z,46.16
2022-10-10T20:44:44.300Z,46.15
2022-10-10T20:47:18.884Z,46.43
2022-10-10T20:49:51.914Z,46.37
2022-10-10T20:52:20.213Z,46.44
2022-10-10T20:54:50.707Z,46.88
2022-10-10T20:57:19.017Z,46.27
2022-10-10T20:59:58.318Z,46.66
2022-10-10T21:02:28.047Z,46.41
2022-10-10T21:04:56.338Z,46.41
2022-10-10T21:07:24.679Z,46.42
2022-10-10T21:09:53.101Z,46.60
2022-10-10T21:12:21.850Z,46.61
2022-10-10T21:14:51.568Z,46.55
2022-10-10T21:17:20.138Z,46.45
2022-10-10T21:19:50.298Z,46.75
2022-10-10T21:22:18.488Z,46.77
2022-10-10T21:24:46.699Z,46.74
2022-10-10T21:27:15.540Z,46.99
2022-10-10T21:29:46.775Z,47.12
2022-10-10T21:32:15.159Z,46.77
2022-10-10T21:34:43.328Z,46.82
2022-10-10T21:37:13.424Z,47.08
2022-10-10T21:39:41.690Z,47.27
2022-10-10T21:42:09.689Z,47.36
2022-10-10T21:44:38.096Z,47.47
2022-10-10T21:47:06.486Z,47.30
2022-10-10T21:49:35.552Z,47.47
2022-10-10T21:52:04.125Z,47.26
2022-10-10T21:54:33.932Z,47.37
2022-10-10T21:57:08.743Z,47.63
2022-10-10T21:59:38.242Z,47.36
2022-10-10T22:02:13.631Z,47.88
2022-10-10T22:04:42.298Z,47.89
2022-10-10T22:07:10.787Z,47.80
2022-10-10T22:09:40.785Z,47.95
2022-10-10T22:12:09.465Z,48.25
2022-10-10T22:14:40.883Z,47.88
2022-10-10T22:17:09.233Z,48.03
2022-10-10T22:19:38.077Z,47.93
2022-10-10T22:22:06.393Z,48.15
2022-10-10T22:24:34.898Z,48.13
2022-10-10T22:27:04.673Z,48.38
2022-10-10T22:29:35.479Z,48.30
2022-10-10T22:32:03.877Z,47.94
2022-10-10T22:34:32.364Z,48.26
2022-10-10T22:37:01.040Z,48.13
2022-10-10T22:39:29.763Z,48.36
2022-10-10T22:42:01.094Z,48.17
2022-10-10T22:44:32.463Z,48.55
2022-10-10T22:47:01.214Z,49.01
2022-10-10T22:49:29.901Z,48.81
2022-10-10T22:51:58.177Z,48.78
2022-10-10T22:54:26.435Z,48.53
2022-10-10T22:56:54.890Z,48.83
2022-10-10T22:59:23.418Z,49.13
2022-10-10T23:01:54.769Z,49.05
2022-10-10T23:04:23.137Z,49.00
2022-10-10T23:06:51.517Z,49.05
2022-10-10T23:09:19.792Z,49.22
2022-10-10T23:11:48.122Z,49.13
2022-10-10T23:14:16.327Z,49.15
2022-10-10T23:16:44.520Z,49.01
2022-10-10T23:19:14.745Z,48.99
2022-10-10T23:21:43.016Z,49.08
2022-10-10T23:24:11.361Z,49.19
2022-10-10T23:26:40.108Z,49.11
2022-10-10T23:29:09.894Z,49.38
2022-10-10T23:31:39.195Z,49.38
2022-10-10T23:34:09.839Z,49.24
2022-10-10T23:36:39.634Z,49.13
2022-10-10T23:39:10.032Z,49.02
2022-10-10T23:41:38.751Z,49.13
2022-10-10T23:44:07.188Z,49.10
2022-10-10T23:46:35.601Z,49.34
2022-10-10T23:49:03.920Z,49.22
2022-10-10T23:51:32.470Z,49.24
2022-10-10T23:54:02.451Z,49.40
2022-10-10T23:56:30.903Z,49.37
2022-10-10T23:58:59.820Z,49.24
